Mattapoisett, MA (02739)

1:14 PM EDT on August 29, 2015 (GMT -0400)
Parker St | | Change Station
CLOSE
Current Station
Personal Weather Station
Location: Mattapoisett, MA
Elevation: 0 ft
Nearby Weather Stations

Elev 0 ft 41.66 °N, 70.83 °W | Updated 8 seconds ago

Clear
Clear
84.0 °F
Feels Like 85 °F
N
8.3
Wind Variable Wind from SSW
Gusts 10.4 mph

Today
High -- | Low -- °F
--% Chance of Precip.
Yesterday
High -- | Low -- °F
Precip. -- in
6:05 AM 7:21 PM
Full, 100% visible
Pressure 30.16 in
Visibility 10.0 miles
Clouds Mostly Cloudy 5000 ft
Heat Index 85 °F
Dew Point 63 °F
Humidity 49%
Rainfall 0.00 in
Snow Depth Not available.
UV 5 out of 12
Pollen 9.60 out of 12
Air Quality Not available.
Flu Activity Not available.
METAR KEWB 291653Z 25007KT 10SM BKN050 26/14 A3016 RMK AO2 SLP213 T02560139
Pressure 30.16 in
Visibility 10.0 miles
Clouds Mostly Cloudy 5000 ft
Heat Index 85 °F
Dew Point 63 °F
Humidity 49%
Rainfall 0.00 in
Snow Depth Not available.
UV 5 out of 12
Pollen 9.60 out of 12
Air Quality Not available.
Flu Activity Not available.
METAR KEWB 291653Z 25007KT 10SM BKN050 26/14 A3016 RMK AO2 SLP213 T02560139

10-Day Weather Forecast

×

Almanac

Astronomy

Aug. 29, 2015 Rise Set
Actual Time
Civil Twilight
Nautical Twilight
Astronomical Twilight
Moon
Length of Visible Light
Length of Day
Tomorrow will be .
, % of the Moon is Illuminated

Today's Extremes

State Highs State Lows

Community

WunderPhotos

Upload Photos

1,850,733 photos uploaded!

WunderBlogs® & News

Nearby

Air Quality

  Air Quality AQ Index Pollutant
Not available.

Snow Depth

Station Depth Elevation

Earthquake Activity

City Distance Mag. Time & Date
Minimum magnitude displayed is 2.5.

Coastal Water Temperatures

Place Temperature

Stations

Nearby Weather Stations

Station Location Temp. Windchill Dew Point Humidity Wind Precip. Elev Updated Type